sensor_id;sensor_type;location;lat;lon;timestamp;P1;durP1;ratioP1;P2;durP2;ratioP2
10260;SDS011;5175;42.606;23.388;2024-03-23T00:53:37;9.23;;;6.53;;
10260;SDS011;5175;42.606;23.388;2024-03-23T00:56:03;9.23;;;5.93;;
10260;SDS011;5175;42.606;23.388;2024-03-23T00:58:30;8.67;;;6.23;;
10260;SDS011;5175;42.606;23.388;2024-03-23T01:00:55;7.90;;;5.80;;
10260;SDS011;5175;42.606;23.388;2024-03-23T01:03:22;8.33;;;6.13;;
10260;SDS011;5175;42.606;23.388;2024-03-23T01:05:48;12.03;;;6.10;;
10260;SDS011;5175;42.606;23.388;2024-03-23T01:08:14;8.00;;;5.73;;
10260;SDS011;5175;42.606;23.388;2024-03-23T01:10:42;7.90;;;5.83;;
10260;SDS011;5175;42.606;23.388;2024-03-23T01:13:08;8.60;;;5.57;;
10260;SDS011;5175;42.606;23.388;2024-03-23T01:15:34;8.83;;;6.00;;
10260;SDS011;5175;42.606;23.388;2024-03-23T01:18:01;7.00;;;5.27;;
10260;SDS011;5175;42.606;23.388;2024-03-23T01:20:27;6.83;;;5.10;;
10260;SDS011;5175;42.606;23.388;2024-03-23T01:22:53;5.97;;;4.53;;
10260;SDS011;5175;42.606;23.388;2024-03-23T01:25:19;5.17;;;4.23;;
10260;SDS011;5175;42.606;23.388;2024-03-23T01:27:47;5.10;;;3.83;;
10260;SDS011;5175;42.606;23.388;2024-03-23T01:30:13;5.10;;;3.80;;
10260;SDS011;5175;42.606;23.388;2024-03-23T01:32:41;4.43;;;4.00;;
10260;SDS011;5175;42.606;23.388;2024-03-23T01:35:07;6.47;;;3.97;;
10260;SDS011;5175;42.606;23.388;2024-03-23T01:37:34;5.13;;;3.90;;
10260;SDS011;5175;42.606;23.388;2024-03-23T01:40:00;5.33;;;4.83;;
10260;SDS011;5175;42.606;23.388;2024-03-23T01:42:29;3.80;;;3.37;;
10260;SDS011;5175;42.606;23.388;2024-03-23T01:44:56;3.73;;;3.33;;
10260;SDS011;5175;42.606;23.388;2024-03-23T01:47:23;4.53;;;3.27;;
10260;SDS011;5175;42.606;23.388;2024-03-23T01:49:48;4.37;;;3.13;;
10260;SDS011;5175;42.606;23.388;2024-03-23T01:52:16;3.77;;;2.73;;
10260;SDS011;5175;42.606;23.388;2024-03-23T01:54:42;3.70;;;3.30;;
10260;SDS011;5175;42.606;23.388;2024-03-23T01:57:10;5.10;;;3.13;;
10260;SDS011;5175;42.606;23.388;2024-03-23T01:59:38;5.77;;;3.40;;
10260;SDS011;5175;42.606;23.388;2024-03-23T02:02:06;3.90;;;3.50;;
10260;SDS011;5175;42.606;23.388;2024-03-23T02:04:32;4.53;;;3.60;;
10260;SDS011;5175;42.606;23.388;2024-03-23T02:06:58;4.00;;;3.57;;
10260;SDS011;5175;42.606;23.388;2024-03-23T02:09:24;3.00;;;2.70;;
10260;SDS011;5175;42.606;23.388;2024-03-23T02:11:51;5.43;;;4.90;;
10260;SDS011;5175;42.606;23.388;2024-03-23T02:14:17;3.30;;;3.00;;
10260;SDS011;5175;42.606;23.388;2024-03-23T02:16:43;2.70;;;2.50;;
10260;SDS011;5175;42.606;23.388;2024-03-23T02:19:10;3.17;;;2.87;;
10260;SDS011;5175;42.606;23.388;2024-03-23T02:21:37;4.33;;;3.30;;
10260;SDS011;5175;42.606;23.388;2024-03-23T02:24:04;5.30;;;4.07;;
10260;SDS011;5175;42.606;23.388;2024-03-23T02:26:32;7.07;;;4.27;;
10260;SDS011;5175;42.606;23.388;2024-03-23T02:28:57;4.27;;;3.43;;
10260;SDS011;5175;42.606;23.388;2024-03-23T02:31:24;6.20;;;4.27;;
10260;SDS011;5175;42.606;23.388;2024-03-23T02:33:50;6.37;;;4.40;;
10260;SDS011;5175;42.606;23.388;2024-03-23T02:36:16;4.20;;;3.80;;
10260;SDS011;5175;42.606;23.388;2024-03-23T02:38:42;4.87;;;4.27;;
10260;SDS011;5175;42.606;23.388;2024-03-23T02:41:10;6.57;;;5.07;;
10260;SDS011;5175;42.606;23.388;2024-03-23T02:43:36;5.23;;;4.37;;
10260;SDS011;5175;42.606;23.388;2024-03-23T02:46:03;7.17;;;4.60;;
10260;SDS011;5175;42.606;23.388;2024-03-23T02:48:29;6.60;;;4.10;;
10260;SDS011;5175;42.606;23.388;2024-03-23T02:50:56;7.77;;;5.00;;
10260;SDS011;5175;42.606;23.388;2024-03-23T02:53:21;7.63;;;6.00;;
10260;SDS011;5175;42.606;23.388;2024-03-23T02:55:48;7.17;;;5.53;;
10260;SDS011;5175;42.606;23.388;2024-03-23T02:58:15;4.90;;;4.23;;
10260;SDS011;5175;42.606;23.388;2024-03-23T03:00:42;4.80;;;3.50;;
10260;SDS011;5175;42.606;23.388;2024-03-23T03:03:08;4.67;;;3.57;;
10260;SDS011;5175;42.606;23.388;2024-03-23T03:05:34;4.97;;;3.97;;
10260;SDS011;5175;42.606;23.388;2024-03-23T03:08:00;4.13;;;3.20;;
10260;SDS011;5175;42.606;23.388;2024-03-23T03:10:27;5.07;;;4.50;;
10260;SDS011;5175;42.606;23.388;2024-03-23T03:12:52;3.77;;;3.40;;
10260;SDS011;5175;42.606;23.388;2024-03-23T03:15:20;5.17;;;4.00;;
10260;SDS011;5175;42.606;23.388;2024-03-23T03:17:46;5.83;;;3.90;;
10260;SDS011;5175;42.606;23.388;2024-03-23T03:20:13;4.10;;;3.43;;
10260;SDS011;5175;42.606;23.388;2024-03-23T03:22:40;5.00;;;3.93;;
10260;SDS011;5175;42.606;23.388;2024-03-23T03:25:07;4.73;;;3.90;;
10260;SDS011;5175;42.606;23.388;2024-03-23T03:27:33;3.90;;;3.30;;
10260;SDS011;5175;42.606;23.388;2024-03-23T03:30:00;3.77;;;3.17;;
10260;SDS011;5175;42.606;23.388;2024-03-23T03:32:29;4.90;;;3.50;;
10260;SDS011;5175;42.606;23.388;2024-03-23T03:34:55;4.50;;;3.40;;
10260;SDS011;5175;42.606;23.388;2024-03-23T03:37:21;4.73;;;3.60;;
10260;SDS011;5175;42.606;23.388;2024-03-23T03:39:48;3.50;;;3.20;;
10260;SDS011;5175;42.606;23.388;2024-03-23T03:42:14;5.80;;;4.40;;
10260;SDS011;5175;42.606;23.388;2024-03-23T03:44:41;5.47;;;3.97;;
10260;SDS011;5175;42.606;23.388;2024-03-23T03:47:06;10.30;;;4.60;;
10260;SDS011;5175;42.606;23.388;2024-03-23T03:49:35;5.90;;;4.40;;
10260;SDS011;5175;42.606;23.388;2024-03-23T03:52:00;5.07;;;4.47;;
10260;SDS011;5175;42.606;23.388;2024-03-23T03:54:27;5.97;;;4.60;;
10260;SDS011;5175;42.606;23.388;2024-03-23T03:56:53;4.33;;;3.93;;
10260;SDS011;5175;42.606;23.388;2024-03-23T03:59:20;5.20;;;4.30;;
10260;SDS011;5175;42.606;23.388;2024-03-23T04:01:45;5.67;;;4.70;;
10260;SDS011;5175;42.606;23.388;2024-03-23T04:04:12;4.80;;;4.23;;
10260;SDS011;5175;42.606;23.388;2024-03-23T04:06:40;6.17;;;4.40;;
10260;SDS011;5175;42.606;23.388;2024-03-23T04:09:07;5.00;;;3.90;;
10260;SDS011;5175;42.606;23.388;2024-03-23T04:11:33;5.13;;;3.53;;
10260;SDS011;5175;42.606;23.388;2024-03-23T04:13:59;7.63;;;3.73;;
10260;SDS011;5175;42.606;23.388;2024-03-23T04:16:26;4.47;;;4.03;;
10260;SDS011;5175;42.606;23.388;2024-03-23T04:18:53;4.63;;;3.83;;
10260;SDS011;5175;42.606;23.388;2024-03-23T04:21:19;4.07;;;3.20;;
10260;SDS011;5175;42.606;23.388;2024-03-23T04:23:47;4.70;;;3.70;;
10260;SDS011;5175;42.606;23.388;2024-03-23T04:26:13;4.10;;;3.30;;
10260;SDS011;5175;42.606;23.388;2024-03-23T04:28:40;3.77;;;3.37;;
10260;SDS011;5175;42.606;23.388;2024-03-23T04:31:05;4.70;;;3.53;;
10260;SDS011;5175;42.606;23.388;2024-03-23T04:33:32;4.87;;;3.90;;
10260;SDS011;5175;42.606;23.388;2024-03-23T04:35:58;3.70;;;3.10;;
10260;SDS011;5175;42.606;23.388;2024-03-23T04:38:24;4.63;;;3.77;;
10260;SDS011;5175;42.606;23.388;2024-03-23T04:40:56;4.43;;;3.93;;
10260;SDS011;5175;42.606;23.388;2024-03-23T04:43:23;4.60;;;4.00;;
10260;SDS011;5175;42.606;23.388;2024-03-23T04:45:50;4.53;;;4.00;;
10260;SDS011;5175;42.606;23.388;2024-03-23T04:48:19;6.60;;;4.20;;
10260;SDS011;5175;42.606;23.388;2024-03-23T04:50:47;5.37;;;4.33;;
10260;SDS011;5175;42.606;23.388;2024-03-23T04:53:14;7.83;;;6.00;;
10260;SDS011;5175;42.606;23.388;2024-03-23T04:55:41;6.77;;;5.90;;
10260;SDS011;5175;42.606;23.388;2024-03-23T04:58:09;5.73;;;3.93;;
10260;SDS011;5175;42.606;23.388;2024-03-23T05:00:34;5.30;;;4.60;;
10260;SDS011;5175;42.606;23.388;2024-03-23T05:03:01;6.87;;;6.03;;
10260;SDS011;5175;42.606;23.388;2024-03-23T05:05:27;6.37;;;4.97;;
10260;SDS011;5175;42.606;23.388;2024-03-23T05:07:53;7.20;;;6.13;;
10260;SDS011;5175;42.606;23.388;2024-03-23T05:10:19;6.17;;;5.33;;
10260;SDS011;5175;42.606;23.388;2024-03-23T05:12:46;8.30;;;5.87;;
10260;SDS011;5175;42.606;23.388;2024-03-23T05:15:13;7.30;;;5.63;;
10260;SDS011;5175;42.606;23.388;2024-03-23T05:17:40;8.97;;;5.73;;
10260;SDS011;5175;42.606;23.388;2024-03-23T05:20:06;8.03;;;5.70;;
10260;SDS011;5175;42.606;23.388;2024-03-23T05:22:34;10.43;;;6.70;;
10260;SDS011;5175;42.606;23.388;2024-03-23T05:25:00;6.67;;;5.70;;
10260;SDS011;5175;42.606;23.388;2024-03-23T05:27:29;6.80;;;5.67;;
10260;SDS011;5175;42.606;23.388;2024-03-23T05:29:55;5.87;;;5.20;;
10260;SDS011;5175;42.606;23.388;2024-03-23T05:32:23;7.87;;;5.50;;
10260;SDS011;5175;42.606;23.388;2024-03-23T05:34:49;7.87;;;5.20;;
10260;SDS011;5175;42.606;23.388;2024-03-23T05:37:20;8.40;;;5.60;;
10260;SDS011;5175;42.606;23.388;2024-03-23T05:39:46;7.87;;;6.07;;
10260;SDS011;5175;42.606;23.388;2024-03-23T05:42:14;9.17;;;6.23;;
10260;SDS011;5175;42.606;23.388;2024-03-23T05:44:40;7.37;;;6.17;;
10260;SDS011;5175;42.606;23.388;2024-03-23T05:47:08;7.87;;;6.37;;
10260;SDS011;5175;42.606;23.388;2024-03-23T05:49:35;9.70;;;7.70;;
10260;SDS011;5175;42.606;23.388;2024-03-23T05:52:02;8.57;;;6.73;;
10260;SDS011;5175;42.606;23.388;2024-03-23T05:54:28;11.17;;;7.97;;
10260;SDS011;5175;42.606;23.388;2024-03-23T05:56:55;9.67;;;6.47;;
10260;SDS011;5175;42.606;23.388;2024-03-23T05:59:21;9.60;;;6.97;;
10260;SDS011;5175;42.606;23.388;2024-03-23T06:01:48;8.90;;;7.13;;
10260;SDS011;5175;42.606;23.388;2024-03-23T06:04:14;8.50;;;6.80;;
10260;SDS011;5175;42.606;23.388;2024-03-23T06:06:42;8.10;;;6.90;;
10260;SDS011;5175;42.606;23.388;2024-03-23T06:09:08;10.03;;;7.50;;
10260;SDS011;5175;42.606;23.388;2024-03-23T06:11:34;8.80;;;6.73;;
10260;SDS011;5175;42.606;23.388;2024-03-23T06:14:00;7.47;;;6.47;;
10260;SDS011;5175;42.606;23.388;2024-03-23T06:16:27;8.37;;;6.70;;
10260;SDS011;5175;42.606;23.388;2024-03-23T06:18:53;10.23;;;6.57;;
10260;SDS011;5175;42.606;23.388;2024-03-23T06:21:21;8.37;;;6.77;;
10260;SDS011;5175;42.606;23.388;2024-03-23T06:23:51;9.30;;;6.20;;
10260;SDS011;5175;42.606;23.388;2024-03-23T06:26:18;7.50;;;6.23;;
10260;SDS011;5175;42.606;23.388;2024-03-23T06:28:44;7.40;;;6.20;;
10260;SDS011;5175;42.606;23.388;2024-03-23T06:31:10;9.13;;;6.70;;
10260;SDS011;5175;42.606;23.388;2024-03-23T06:33:36;8.87;;;6.77;;
10260;SDS011;5175;42.606;23.388;2024-03-23T06:36:04;10.70;;;6.47;;
10260;SDS011;5175;42.606;23.388;2024-03-23T06:38:30;9.33;;;6.27;;
10260;SDS011;5175;42.606;23.388;2024-03-23T06:40:58;12.00;;;6.60;;
10260;SDS011;5175;42.606;23.388;2024-03-23T06:43:27;6.90;;;5.80;;
10260;SDS011;5175;42.606;23.388;2024-03-23T06:45:54;8.03;;;6.53;;
10260;SDS011;5175;42.606;23.388;2024-03-23T06:48:20;6.73;;;5.77;;
10260;SDS011;5175;42.606;23.388;2024-03-23T06:50:47;9.03;;;5.83;;
10260;SDS011;5175;42.606;23.388;2024-03-23T06:53:14;6.47;;;5.63;;
10260;SDS011;5175;42.606;23.388;2024-03-23T06:55:40;7.43;;;5.50;;
10260;SDS011;5175;42.606;23.388;2024-03-23T06:58:08;7.77;;;6.00;;
10260;SDS011;5175;42.606;23.388;2024-03-23T07:00:35;7.07;;;5.80;;
10260;SDS011;5175;42.606;23.388;2024-03-23T07:03:01;7.70;;;6.03;;
10260;SDS011;5175;42.606;23.388;2024-03-23T07:05:29;7.10;;;5.93;;
10260;SDS011;5175;42.606;23.388;2024-03-23T07:07:55;6.03;;;5.27;;
10260;SDS011;5175;42.606;23.388;2024-03-23T07:10:21;5.97;;;5.33;;
10260;SDS011;5175;42.606;23.388;2024-03-23T07:12:48;6.70;;;5.57;;
10260;SDS011;5175;42.606;23.388;2024-03-23T07:15:15;6.97;;;5.03;;
10260;SDS011;5175;42.606;23.388;2024-03-23T07:17:42;9.40;;;6.23;;
10260;SDS011;5175;42.606;23.388;2024-03-23T07:20:08;8.27;;;6.90;;
10260;SDS011;5175;42.606;23.388;2024-03-23T07:22:36;18.23;;;9.03;;
10260;SDS011;5175;42.606;23.388;2024-03-23T07:25:02;17.97;;;8.77;;
10260;SDS011;5175;42.606;23.388;2024-03-23T07:27:29;24.33;;;10.00;;
10260;SDS011;5175;42.606;23.388;2024-03-23T07:29:55;17.97;;;9.43;;
10260;SDS011;5175;42.606;23.388;2024-03-23T07:32:23;22.43;;;11.40;;
10260;SDS011;5175;42.606;23.388;2024-03-23T07:34:49;14.00;;;7.90;;
10260;SDS011;5175;42.606;23.388;2024-03-23T07:37:15;11.47;;;7.47;;
10260;SDS011;5175;42.606;23.388;2024-03-23T07:39:41;10.10;;;7.30;;
10260;SDS011;5175;42.606;23.388;2024-03-23T07:42:08;11.20;;;8.10;;
10260;SDS011;5175;42.606;23.388;2024-03-23T07:44:33;10.47;;;8.37;;
10260;SDS011;5175;42.606;23.388;2024-03-23T07:47:00;9.07;;;7.70;;
10260;SDS011;5175;42.606;23.388;2024-03-23T07:49:27;9.03;;;7.67;;
10260;SDS011;5175;42.606;23.388;2024-03-23T07:51:54;11.00;;;7.53;;
10260;SDS011;5175;42.606;23.388;2024-03-23T07:54:20;12.63;;;8.37;;
10260;SDS011;5175;42.606;23.388;2024-03-23T07:56:47;13.23;;;8.43;;
10260;SDS011;5175;42.606;23.388;2024-03-23T07:59:13;9.70;;;8.60;;
10260;SDS011;5175;42.606;23.388;2024-03-23T08:01:39;10.43;;;8.20;;
10260;SDS011;5175;42.606;23.388;2024-03-23T08:04:05;9.83;;;8.20;;
10260;SDS011;5175;42.606;23.388;2024-03-23T08:06:33;10.33;;;8.47;;
10260;SDS011;5175;42.606;23.388;2024-03-23T08:08:59;10.43;;;8.43;;
10260;SDS011;5175;42.606;23.388;2024-03-23T08:11:26;9.40;;;7.80;;
10260;SDS011;5175;42.606;23.388;2024-03-23T08:13:52;9.53;;;8.63;;
10260;SDS011;5175;42.606;23.388;2024-03-23T08:16:20;11.20;;;8.53;;
10260;SDS011;5175;42.606;23.388;2024-03-23T08:18:46;9.80;;;8.50;;
10260;SDS011;5175;42.606;23.388;2024-03-23T08:21:13;10.00;;;8.30;;
10260;SDS011;5175;42.606;23.388;2024-03-23T08:23:40;10.60;;;8.57;;
10260;SDS011;5175;42.606;23.388;2024-03-23T08:26:07;12.37;;;8.57;;
10260;SDS011;5175;42.606;23.388;2024-03-23T08:28:34;11.50;;;8.90;;
10260;SDS011;5175;42.606;23.388;2024-03-23T08:31:02;10.07;;;8.90;;
10260;SDS011;5175;42.606;23.388;2024-03-23T08:33:30;9.60;;;8.70;;
10260;SDS011;5175;42.606;23.388;2024-03-23T08:35:58;10.87;;;8.60;;
10260;SDS011;5175;42.606;23.388;2024-03-23T08:38:24;12.43;;;9.10;;
10260;SDS011;5175;42.606;23.388;2024-03-23T08:40:57;15.33;;;8.80;;
10260;SDS011;5175;42.606;23.388;2024-03-23T08:43:23;10.33;;;8.80;;
10260;SDS011;5175;42.606;23.388;2024-03-23T08:45:50;11.93;;;8.60;;
10260;SDS011;5175;42.606;23.388;2024-03-23T08:48:16;11.30;;;8.67;;
10260;SDS011;5175;42.606;23.388;2024-03-23T08:50:43;12.83;;;8.97;;
10260;SDS011;5175;42.606;23.388;2024-03-23T08:53:08;11.47;;;8.93;;
10260;SDS011;5175;42.606;23.388;2024-03-23T08:55:36;11.27;;;8.43;;
10260;SDS011;5175;42.606;23.388;2024-03-23T08:58:03;9.60;;;8.33;;
10260;SDS011;5175;42.606;23.388;2024-03-23T09:00:33;14.10;;;8.47;;
10260;SDS011;5175;42.606;23.388;2024-03-23T09:02:59;13.53;;;8.53;;
10260;SDS011;5175;42.606;23.388;2024-03-23T09:05:26;11.13;;;8.57;;
10260;SDS011;5175;42.606;23.388;2024-03-23T09:07:53;9.07;;;8.13;;
10260;SDS011;5175;42.606;23.388;2024-03-23T09:10:20;11.70;;;8.83;;
10260;SDS011;5175;42.606;23.388;2024-03-23T09:12:47;11.80;;;8.60;;
10260;SDS011;5175;42.606;23.388;2024-03-23T09:15:15;11.43;;;9.23;;
10260;SDS011;5175;42.606;23.388;2024-03-23T09:17:41;11.50;;;8.83;;
10260;SDS011;5175;42.606;23.388;2024-03-23T09:20:08;11.53;;;9.30;;
10260;SDS011;5175;42.606;23.388;2024-03-23T09:22:34;15.07;;;10.00;;
10260;SDS011;5175;42.606;23.388;2024-03-23T09:25:01;13.33;;;10.40;;
10260;SDS011;5175;42.606;23.388;2024-03-23T09:27:27;12.27;;;9.27;;
10260;SDS011;5175;42.606;23.388;2024-03-23T09:29:54;13.17;;;9.37;;
10260;SDS011;5175;42.606;23.388;2024-03-23T09:32:21;11.43;;;8.73;;
10260;SDS011;5175;42.606;23.388;2024-03-23T09:34:48;10.30;;;8.13;;
10260;SDS011;5175;42.606;23.388;2024-03-23T09:37:13;10.60;;;8.97;;
10260;SDS011;5175;42.606;23.388;2024-03-23T09:39:40;9.87;;;8.10;;
10260;SDS011;5175;42.606;23.388;2024-03-23T09:42:06;9.43;;;8.30;;
10260;SDS011;5175;42.606;23.388;2024-03-23T09:44:35;11.90;;;8.43;;
10260;SDS011;5175;42.606;23.388;2024-03-23T09:47:01;12.40;;;8.27;;
10260;SDS011;5175;42.606;23.388;2024-03-23T09:49:29;12.13;;;8.07;;
10260;SDS011;5175;42.606;23.388;2024-03-23T09:51:55;9.70;;;8.50;;
10260;SDS011;5175;42.606;23.388;2024-03-23T09:54:22;10.20;;;8.00;;
10260;SDS011;5175;42.606;23.388;2024-03-23T09:56:48;9.27;;;8.00;;
10260;SDS011;5175;42.606;23.388;2024-03-23T09:59:14;11.70;;;8.00;;
10260;SDS011;5175;42.606;23.388;2024-03-23T10:01:40;12.83;;;9.00;;
10260;SDS011;5175;42.606;23.388;2024-03-23T10:04:08;10.27;;;8.25;;
10260;SDS011;5175;42.606;23.388;2024-03-23T10:06:35;9.10;;;7.97;;
10260;SDS011;5175;42.606;23.388;2024-03-23T10:09:01;12.03;;;8.60;;
10260;SDS011;5175;42.606;23.388;2024-03-23T10:11:42;11.50;;;7.90;;
10260;SDS011;5175;42.606;23.388;2024-03-23T10:14:14;12.40;;;7.93;;
10260;SDS011;5175;42.606;23.388;2024-03-23T10:16:54;9.37;;;7.40;;
10260;SDS011;5175;42.606;23.388;2024-03-23T10:19:30;10.67;;;8.03;;
10260;SDS011;5175;42.606;23.388;2024-03-23T10:21:57;9.00;;;7.43;;
10260;SDS011;5175;42.606;23.388;2024-03-23T10:24:24;10.50;;;7.10;;
10260;SDS011;5175;42.606;23.388;2024-03-23T10:26:55;8.98;;;7.00;;
10260;SDS011;5175;42.606;23.388;2024-03-23T10:29:22;9.57;;;7.38;;
10260;SDS011;5175;42.606;23.388;2024-03-23T10:31:48;9.53;;;7.50;;
10260;SDS011;5175;42.606;23.388;2024-03-23T10:34:15;9.90;;;7.63;;
10260;SDS011;5175;42.606;23.388;2024-03-23T10:36:41;9.90;;;7.32;;
10260;SDS011;5175;42.606;23.388;2024-03-23T10:39:10;12.47;;;7.37;;
10260;SDS011;5175;42.606;23.388;2024-03-23T10:41:37;12.35;;;7.65;;
10260;SDS011;5175;42.606;23.388;2024-03-23T10:44:05;8.47;;;6.77;;
10260;SDS011;5175;42.606;23.388;2024-03-23T10:46:31;10.55;;;7.72;;
10260;SDS011;5175;42.606;23.388;2024-03-23T10:48:58;10.85;;;7.38;;
10260;SDS011;5175;42.606;23.388;2024-03-23T10:51:24;10.13;;;6.97;;
10260;SDS011;5175;42.606;23.388;2024-03-23T10:53:51;9.23;;;7.20;;
10260;SDS011;5175;42.606;23.388;2024-03-23T10:56:22;7.82;;;7.00;;
10260;SDS011;5175;42.606;23.388;2024-03-23T10:58:49;9.00;;;7.10;;
10260;SDS011;5175;42.606;23.388;2024-03-23T11:01:15;6.90;;;6.18;;
10260;SDS011;5175;42.606;23.388;2024-03-23T11:03:44;9.48;;;6.68;;
10260;SDS011;5175;42.606;23.388;2024-03-23T11:06:12;8.98;;;7.22;;
10260;SDS011;5175;42.606;23.388;2024-03-23T11:09:02;9.95;;;7.38;;
10260;SDS011;5175;42.606;23.388;2024-03-23T11:11:29;8.38;;;7.07;;
10260;SDS011;5175;42.606;23.388;2024-03-23T11:13:58;9.57;;;6.88;;
10260;SDS011;5175;42.606;23.388;2024-03-23T11:16:25;7.85;;;6.70;;
10260;SDS011;5175;42.606;23.388;2024-03-23T11:18:55;10.93;;;6.90;;
10260;SDS011;5175;42.606;23.388;2024-03-23T11:21:59;11.98;;;6.80;;
10260;SDS011;5175;42.606;23.388;2024-03-23T11:24:28;9.02;;;7.10;;
10260;SDS011;5175;42.606;23.388;2024-03-23T11:26:55;9.45;;;6.90;;
10260;SDS011;5175;42.606;23.388;2024-03-23T11:29:25;9.25;;;7.05;;
10260;SDS011;5175;42.606;23.388;2024-03-23T11:31:51;9.15;;;6.63;;
10260;SDS011;5175;42.606;23.388;2024-03-23T11:34:19;9.27;;;6.90;;
10260;SDS011;5175;42.606;23.388;2024-03-23T11:36:45;8.38;;;6.78;;
10260;SDS011;5175;42.606;23.388;2024-03-23T11:39:13;8.52;;;6.20;;
10260;SDS011;5175;42.606;23.388;2024-03-23T11:41:47;8.27;;;6.88;;
10260;SDS011;5175;42.606;23.388;2024-03-23T11:44:17;7.80;;;6.50;;
10260;SDS011;5175;42.606;23.388;2024-03-23T11:46:43;10.25;;;6.28;;
10260;SDS011;5175;42.606;23.388;2024-03-23T11:49:19;7.40;;;6.22;;
10260;SDS011;5175;42.606;23.388;2024-03-23T11:51:47;8.30;;;6.43;;
10260;SDS011;5175;42.606;23.388;2024-03-23T11:54:14;7.72;;;6.00;;
10260;SDS011;5175;42.606;23.388;2024-03-23T11:56:40;7.28;;;6.30;;
10260;SDS011;5175;42.606;23.388;2024-03-23T11:59:06;7.95;;;6.80;;
10260;SDS011;5175;42.606;23.388;2024-03-23T12:01:34;8.25;;;6.43;;
10260;SDS011;5175;42.606;23.388;2024-03-23T12:04:01;9.15;;;6.75;;
10260;SDS011;5175;42.606;23.388;2024-03-23T12:06:27;7.68;;;6.68;;
10260;SDS011;5175;42.606;23.388;2024-03-23T12:08:54;11.07;;;6.18;;
10260;SDS011;5175;42.606;23.388;2024-03-23T12:11:31;8.07;;;6.78;;
10260;SDS011;5175;42.606;23.388;2024-03-23T12:13:59;9.27;;;6.70;;
10260;SDS011;5175;42.606;23.388;2024-03-23T12:16:25;7.03;;;6.32;;
10260;SDS011;5175;42.606;23.388;2024-03-23T12:18:54;8.60;;;6.85;;
10260;SDS011;5175;42.606;23.388;2024-03-23T12:21:30;8.73;;;6.93;;
10260;SDS011;5175;42.606;23.388;2024-03-23T12:23:57;11.30;;;7.60;;
10260;SDS011;5175;42.606;23.388;2024-03-23T12:26:23;8.73;;;7.47;;
10260;SDS011;5175;42.606;23.388;2024-03-23T12:28:50;12.95;;;7.40;;
10260;SDS011;5175;42.606;23.388;2024-03-23T12:31:16;10.85;;;7.32;;
10260;SDS011;5175;42.606;23.388;2024-03-23T12:33:43;9.63;;;7.05;;
10260;SDS011;5175;42.606;23.388;2024-03-23T12:36:11;11.18;;;7.45;;
10260;SDS011;5175;42.606;23.388;2024-03-23T12:38:37;8.25;;;7.30;;
10260;SDS011;5175;42.606;23.388;2024-03-23T12:41:03;7.97;;;6.85;;
10260;SDS011;5175;42.606;23.388;2024-03-23T12:43:31;15.30;;;8.07;;
10260;SDS011;5175;42.606;23.388;2024-03-23T12:45:56;12.05;;;7.50;;
10260;SDS011;5175;42.606;23.388;2024-03-23T12:48:23;8.10;;;7.00;;
10260;SDS011;5175;42.606;23.388;2024-03-23T12:50:49;9.60;;;6.80;;
10260;SDS011;5175;42.606;23.388;2024-03-23T12:53:22;9.77;;;7.00;;
10260;SDS011;5175;42.606;23.388;2024-03-23T12:55:47;12.90;;;7.18;;
10260;SDS011;5175;42.606;23.388;2024-03-23T12:58:14;9.60;;;7.07;;
10260;SDS011;5175;42.606;23.388;2024-03-23T13:00:40;8.40;;;7.05;;
10260;SDS011;5175;42.606;23.388;2024-03-23T13:03:06;9.82;;;6.47;;
10260;SDS011;5175;42.606;23.388;2024-03-23T13:05:33;8.90;;;6.65;;
10260;SDS011;5175;42.606;23.388;2024-03-23T13:07:59;9.63;;;7.07;;
10260;SDS011;5175;42.606;23.388;2024-03-23T13:10:26;8.10;;;7.25;;
10260;SDS011;5175;42.606;23.388;2024-03-23T13:12:53;10.60;;;6.88;;
10260;SDS011;5175;42.606;23.388;2024-03-23T13:15:19;7.63;;;6.80;;
10260;SDS011;5175;42.606;23.388;2024-03-23T13:17:45;7.45;;;6.60;;
10260;SDS011;5175;42.606;23.388;2024-03-23T13:20:11;9.75;;;6.63;;
10260;SDS011;5175;42.606;23.388;2024-03-23T13:22:40;9.68;;;6.43;;
10260;SDS011;5175;42.606;23.388;2024-03-23T13:25:06;7.32;;;5.95;;
10260;SDS011;5175;42.606;23.388;2024-03-23T13:27:34;7.63;;;6.15;;
10260;SDS011;5175;42.606;23.388;2024-03-23T13:30:00;8.10;;;5.82;;
10260;SDS011;5175;42.606;23.388;2024-03-23T13:32:29;7.13;;;5.88;;
10260;SDS011;5175;42.606;23.388;2024-03-23T13:34:54;6.43;;;5.13;;
10260;SDS011;5175;42.606;23.388;2024-03-23T13:37:21;4.97;;;4.10;;
10260;SDS011;5175;42.606;23.388;2024-03-23T13:39:47;10.57;;;5.00;;
10260;SDS011;5175;42.606;23.388;2024-03-23T13:42:13;5.63;;;4.28;;
10260;SDS011;5175;42.606;23.388;2024-03-23T13:44:42;6.22;;;4.50;;
10260;SDS011;5175;42.606;23.388;2024-03-23T13:47:09;5.38;;;4.30;;
10260;SDS011;5175;42.606;23.388;2024-03-23T13:49:35;5.13;;;4.40;;
10260;SDS011;5175;42.606;23.388;2024-03-23T13:52:02;5.72;;;4.50;;
10260;SDS011;5175;42.606;23.388;2024-03-23T13:54:28;5.28;;;4.30;;
10260;SDS011;5175;42.606;23.388;2024-03-23T13:56:55;5.03;;;4.25;;
10260;SDS011;5175;42.606;23.388;2024-03-23T13:59:21;4.60;;;3.63;;
10260;SDS011;5175;42.606;23.388;2024-03-23T14:01:50;4.38;;;3.70;;
10260;SDS011;5175;42.606;23.388;2024-03-23T14:04:16;6.65;;;4.13;;
10260;SDS011;5175;42.606;23.388;2024-03-23T14:06:44;5.10;;;3.72;;
10260;SDS011;5175;42.606;23.388;2024-03-23T14:09:10;5.15;;;3.70;;
10260;SDS011;5175;42.606;23.388;2024-03-23T14:11:37;3.90;;;3.50;;
10260;SDS011;5175;42.606;23.388;2024-03-23T14:14:03;4.75;;;3.72;;
10260;SDS011;5175;42.606;23.388;2024-03-23T14:16:30;4.63;;;3.45;;
10260;SDS011;5175;42.606;23.388;2024-03-23T14:18:57;4.55;;;3.38;;
10260;SDS011;5175;42.606;23.388;2024-03-23T14:21:24;4.72;;;3.05;;
10260;SDS011;5175;42.606;23.388;2024-03-23T14:23:50;3.97;;;2.30;;
10260;SDS011;5175;42.606;23.388;2024-03-23T14:26:16;4.80;;;2.50;;
10260;SDS011;5175;42.606;23.388;2024-03-23T14:28:42;2.83;;;2.35;;
10260;SDS011;5175;42.606;23.388;2024-03-23T14:31:09;4.10;;;3.28;;
10260;SDS011;5175;42.606;23.388;2024-03-23T14:33:35;4.00;;;3.00;;
10260;SDS011;5175;42.606;23.388;2024-03-23T14:36:04;4.40;;;3.60;;
10260;SDS011;5175;42.606;23.388;2024-03-23T14:38:31;2.88;;;2.08;;
10260;SDS011;5175;42.606;23.388;2024-03-23T14:40:58;3.15;;;2.00;;
10260;SDS011;5175;42.606;23.388;2024-03-23T14:43:24;5.50;;;2.35;;
10260;SDS011;5175;42.606;23.388;2024-03-23T14:46:06;4.18;;;2.38;;
10260;SDS011;5175;42.606;23.388;2024-03-23T14:48:33;2.40;;;2.20;;
10260;SDS011;5175;42.606;23.388;2024-03-23T14:51:00;4.82;;;2.40;;
10260;SDS011;5175;42.606;23.388;2024-03-23T14:53:27;3.42;;;2.30;;
10260;SDS011;5175;42.606;23.388;2024-03-23T14:55:55;2.58;;;2.10;;
10260;SDS011;5175;42.606;23.388;2024-03-23T14:58:20;2.10;;;1.90;;
10260;SDS011;5175;42.606;23.388;2024-03-23T15:00:48;3.33;;;1.75;;
10260;SDS011;5175;42.606;23.388;2024-03-23T15:03:13;2.83;;;1.85;;
10260;SDS011;5175;42.606;23.388;2024-03-23T15:05:40;1.75;;;1.65;;
10260;SDS011;5175;42.606;23.388;2024-03-23T15:08:06;1.88;;;1.77;;
10260;SDS011;5175;42.606;23.388;2024-03-23T15:10:35;2.13;;;1.75;;
10260;SDS011;5175;42.606;23.388;2024-03-23T15:13:00;3.17;;;1.70;;
10260;SDS011;5175;42.606;23.388;2024-03-23T15:15:27;2.45;;;1.83;;
10260;SDS011;5175;42.606;23.388;2024-03-23T15:17:53;2.38;;;1.58;;
10260;SDS011;5175;42.606;23.388;2024-03-23T15:20:20;1.92;;;1.80;;
10260;SDS011;5175;42.606;23.388;2024-03-23T15:22:45;2.10;;;1.85;;
10260;SDS011;5175;42.606;23.388;2024-03-23T15:25:12;2.83;;;1.90;;
10260;SDS011;5175;42.606;23.388;2024-03-23T15:27:39;3.95;;;2.47;;
10260;SDS011;5175;42.606;23.388;2024-03-23T15:30:06;2.58;;;2.08;;
10260;SDS011;5175;42.606;23.388;2024-03-23T15:32:33;3.50;;;2.20;;
10260;SDS011;5175;42.606;23.388;2024-03-23T15:35:00;3.55;;;2.03;;
10260;SDS011;5175;42.606;23.388;2024-03-23T15:37:26;2.00;;;1.70;;